Time;durP1;ratioP1;P1;durP2;ratioP2;P2;SDS_P1;SDS_P2;PMS_P1;PMS_P2;Temp;Humidity;BMP_temperature;BMP_pressure;BME280_temperature;BME280_humidity;BME280_pressure;Samples;Min_cycle;Max_cycle;Signal;HPM_P1;HPM_P2
2022/09/22 00:01:44;;;;;;;2.20;1.10;;;;;;;8.83;89.07;101746.13;10487584;28;20049;-78
2022/09/22 00:06:50;;;;;;;1.80;1.45;;;;;;;8.87;89.73;101733.63;10454553;28;20423;-77
2022/09/22 00:11:53;;;;;;;1.48;0.93;;;;;;;8.89;89.45;101733.41;10464256;28;20511;-77
2022/09/22 00:16:57;;;;;;;1.70;0.93;;;;;;;8.85;89.84;101729.47;10486074;28;20032;-78
2022/09/22 00:22:01;;;;;;;1.70;1.00;;;;;;;8.85;88.46;101734.94;10482378;28;20037;-77
2022/09/22 00:27:03;;;;;;;5.50;0.68;;;;;;;8.85;87.60;101727.59;10473349;28;20060;-78
2022/09/22 00:32:06;;;;;;;4.95;0.93;;;;;;;8.88;87.85;101726.25;10485641;28;20055;-77
2022/09/22 00:37:08;;;;;;;5.10;0.85;;;;;;;8.91;87.00;101718.38;10489095;28;20036;-77
2022/09/22 00:42:11;;;;;;;0.85;0.57;;;;;;;8.94;86.86;101725.28;10481399;28;20052;-77
2022/09/22 00:47:32;;;;;;;7.05;1.20;;;;;;;9.05;85.38;101724.41;10471795;28;20542;-76
2022/09/22 00:52:37;;;;;;;5.45;1.67;;;;;;;9.07;85.32;101725.00;10479515;28;20048;-77
2022/09/22 00:57:40;;;;;;;3.42;0.90;;;;;;;9.16;84.78;101715.28;10484812;28;20033;-77
2022/09/22 01:02:47;;;;;;;2.58;1.20;;;;;;;9.14;84.56;101722.91;10472276;28;20040;-77
2022/09/22 01:07:50;;;;;;;4.83;0.80;;;;;;;9.08;84.27;101718.44;10484564;28;20040;-77
2022/09/22 01:13:12;;;;;;;2.20;0.22;;;;;;;9.10;83.28;101712.72;10468368;28;20056;-77
2022/09/22 01:18:37;;;;;;;6.90;0.65;;;;;;;9.03;83.21;101718.34;10479070;28;20055;-77
2022/09/22 01:23:57;;;;;;;1.30;0.93;;;;;;;9.05;83.20;101729.88;10477223;28;20040;-77
2022/09/22 01:29:28;;;;;;;0.90;0.70;;;;;;;8.99;83.40;101728.09;10486174;28;20044;-77
2022/09/22 01:34:45;;;;;;;1.42;0.50;;;;;;;8.92;83.77;101722.78;10460579;28;20052;-77
2022/09/22 01:40:09;;;;;;;1.85;0.70;;;;;;;8.92;84.01;101717.31;10466720;28;20045;-77
2022/09/22 01:45:15;;;;;;;4.55;1.15;;;;;;;8.81;83.82;101714.59;10486629;28;20053;-77
2022/09/22 01:50:23;;;;;;;1.10;0.75;;;;;;;8.74;84.72;101709.28;10490631;28;20052;-77
2022/09/22 01:55:29;;;;;;;;;;;;;;;8.74;84.81;101714.75;10515984;28;20138;-77
2022/09/22 02:00:31;;;;;;;1.38;0.75;;;;;;;8.72;85.84;101712.25;10483650;28;19921;-77
2022/09/22 02:06:15;;;;;;;0.30;0.30;;;;;;;8.62;86.19;101708.47;10484316;28;20064;-77
2022/09/22 02:11:17;;;;;;;1.20;0.80;;;;;;;8.60;86.37;101705.97;10480205;28;20041;-77
2022/09/22 02:16:21;;;;;;;1.23;0.75;;;;;;;8.58;87.49;101716.34;10484422;28;20403;-77
2022/09/22 02:21:25;;;;;;;0.85;0.50;;;;;;;8.54;87.34;101711.59;10471527;28;20033;-77
2022/09/22 02:26:29;;;;;;;1.15;0.82;;;;;;;8.52;88.33;101711.00;10484672;28;20044;-77
2022/09/22 02:31:33;;;;;;;0.90;0.52;;;;;;;8.47;88.37;101714.44;10482924;28;20045;-77
2022/09/22 02:37:22;;;;;;;0.70;0.68;;;;;;;8.50;87.37;101713.97;10485541;28;20806;-77
2022/09/22 02:42:28;;;;;;;2.10;0.80;;;;;;;8.44;87.57;101713.03;10467857;28;20037;-77
2022/09/22 02:47:49;;;;;;;0.60;0.60;;;;;;;8.40;88.04;101713.75;10507306;28;20063;-77
2022/09/22 02:52:55;;;;;;;2.85;1.00;;;;;;;8.48;87.40;101712.53;10489333;28;20041;-77
2022/09/22 02:57:57;;;;;;;3.13;1.10;;;;;;;8.51;87.32;101715.66;10491666;28;20052;-77
2022/09/22 03:03:00;;;;;;;2.08;1.15;;;;;;;8.54;86.34;101720.63;10457244;28;20045;-77
2022/09/22 03:08:03;;;;;;;0.57;0.57;;;;;;;8.53;86.04;101718.97;10486243;28;20052;-77
2022/09/22 03:13:05;;;;;;;2.40;0.80;;;;;;;8.52;86.66;101725.53;10491055;28;20048;-77
2022/09/22 03:18:08;;;;;;;1.58;1.00;;;;;;;8.52;85.83;101725.53;10487948;28;20048;-77
2022/09/22 03:23:10;;;;;;;1.10;0.57;;;;;;;8.54;86.14;101725.28;10486514;28;20045;-78
2022/09/22 03:28:12;;;;;;;1.80;0.63;;;;;;;8.54;85.20;101723.38;10489669;28;20048;-78
2022/09/22 03:33:14;;;;;;;1.67;0.47;;;;;;;8.66;85.35;101723.31;10463272;28;20041;-78
2022/09/22 03:38:16;;;;;;;1.23;0.75;;;;;;;8.62;85.09;101727.63;10502939;28;20044;-78
2022/09/22 03:43:19;;;;;;;0.35;0.35;;;;;;;8.60;85.66;101724.31;10487784;28;20077;-78
2022/09/22 03:48:21;;;;;;;1.23;0.60;;;;;;;8.56;84.92;101723.97;10489579;28;20037;-78
2022/09/22 03:53:24;;;;;;;0.55;0.35;;;;;;;8.55;85.43;101727.78;10485520;28;20048;-78
2022/09/22 03:58:26;;;;;;;0.55;0.32;;;;;;;8.53;84.82;101724.44;10489846;28;20055;-78
2022/09/22 04:03:28;;;;;;;0.30;0.25;;;;;;;8.52;84.97;101731.00;10501412;28;20495;-77
2022/09/22 04:08:30;;;;;;;1.35;0.65;;;;;;;8.56;84.68;101729.44;10488537;28;20072;-80
2022/09/22 04:13:34;;;;;;;1.40;0.73;;;;;;;8.55;85.04;101730.50;10489575;28;20044;-79
2022/09/22 04:18:39;;;;;;;0.60;0.60;;;;;;;8.64;84.87;101731.78;10484505;28;20052;-79
2022/09/22 04:23:41;;;;;;;0.60;0.57;;;;;;;8.66;84.76;101718.69;10481415;28;20056;-80
2022/09/22 04:28:44;;;;;;;1.13;0.80;;;;;;;8.66;84.76;101728.78;10482916;28;20423;-78
2022/09/22 04:33:46;;;;;;;4.57;1.17;;;;;;;8.85;84.17;101727.59;10480728;28;20037;-84
2022/09/22 04:38:48;;;;;;;2.03;1.20;;;;;;;8.94;83.86;101734.31;10471757;28;20795;-81
2022/09/22 04:43:50;;;;;;;1.02;0.93;;;;;;;8.97;83.71;101735.72;10486426;28;20029;-81
2022/09/22 04:48:53;;;;;;;1.60;0.80;;;;;;;9.02;83.37;101735.81;10487060;28;20056;-87
2022/09/22 04:54:19;;;;;;;3.20;1.10;;;;;;;9.13;83.15;101740.44;10484679;28;20041;-83
2022/09/22 04:59:22;;;;;;;2.97;0.98;;;;;;;9.19;82.05;101741.34;10483746;28;20535;-83
2022/09/22 05:04:24;;;;;;;1.35;1.00;;;;;;;9.17;82.14;101744.34;10487541;28;20040;-83
2022/09/22 05:09:27;;;;;;;1.48;0.85;;;;;;;9.23;81.21;101737.91;10485387;28;20063;-83
2022/09/22 05:14:30;;;;;;;1.55;0.65;;;;;;;9.28;81.19;101743.47;10484686;28;20033;-80
2022/09/22 05:19:32;;;;;;;2.40;1.10;;;;;;;9.29;80.92;101739.66;10498384;28;20036;-81
2022/09/22 05:24:34;;;;;;;2.20;1.10;;;;;;;9.30;81.46;101735.81;10481809;28;20036;-82
2022/09/22 05:29:37;;;;;;;2.15;1.30;;;;;;;9.32;81.69;101727.34;10485607;28;20388;-82
2022/09/22 05:34:39;;;;;;;3.22;1.10;;;;;;;9.36;81.70;101723.03;10455761;28;20411;-82
2022/09/22 05:39:42;;;;;;;1.27;0.80;;;;;;;9.38;81.97;101718.19;10484996;28;20422;-82
2022/09/22 05:44:44;;;;;;;5.32;1.70;;;;;;;9.43;81.63;101723.72;10479903;28;20564;-81
2022/09/22 05:49:46;;;;;;;4.60;1.70;;;;;;;9.54;81.47;101719.25;10444337;28;20401;-81
2022/09/22 05:54:48;;;;;;;2.05;1.60;;;;;;;9.71;82.07;101722.00;10456381;28;20447;-81
2022/09/22 05:59:51;;;;;;;4.97;1.40;;;;;;;9.75;81.78;101726.75;10475067;28;20049;-82
2022/09/22 06:05:22;;;;;;;4.65;1.73;;;;;;;9.84;81.12;101718.94;10444170;28;20533;-82
2022/09/22 06:10:24;;;;;;;1.55;1.30;;;;;;;9.94;81.05;101725.41;10443102;28;20068;-82
2022/09/22 06:15:27;;;;;;;2.80;1.25;;;;;;;10.09;80.63;101726.75;10466208;28;20044;-81
2022/09/22 06:20:29;;;;;;;3.75;1.52;;;;;;;10.22;80.08;101726.38;10455377;28;20053;-82
2022/09/22 06:25:32;;;;;;;2.22;1.60;;;;;;;10.25;80.17;101724.00;10458975;28;20050;-82
2022/09/22 06:30:35;;;;;;;2.95;1.20;;;;;;;10.46;80.13;101716.03;10442495;28;20425;-81
2022/09/22 06:35:41;;;;;;;3.22;1.20;;;;;;;10.47;78.72;101710.31;10473992;28;20041;-82
2022/09/22 06:40:43;;;;;;;3.10;1.55;;;;;;;10.73;78.14;101716.94;10483694;28;20041;-82
2022/09/22 06:45:46;;;;;;;1.67;0.90;;;;;;;10.81;78.19;101716.50;10484976;28;20533;-82
2022/09/22 06:50:50;;;;;;;2.08;1.05;;;;;;;10.85;76.98;101714.06;10485084;28;20515;-82
2022/09/22 06:55:52;;;;;;;1.70;1.10;;;;;;;10.85;77.01;101708.56;10473658;28;20037;-82
2022/09/22 07:00:57;;;;;;;2.15;1.10;;;;;;;11.00;76.55;101711.50;10443604;28;20057;-84
2022/09/22 07:06:01;;;;;;;1.35;1.13;;;;;;;11.16;76.42;101710.56;10443642;28;20061;-82
2022/09/22 07:11:08;;;;;;;1.48;0.95;;;;;;;11.18;76.10;101715.81;10442620;28;20152;-82
2022/09/22 07:16:16;;;;;;;2.13;1.30;;;;;;;11.41;75.73;101711.91;10464533;28;20056;-82
2022/09/22 07:21:28;;;;;;;3.10;1.42;;;;;;;11.74;75.21;101719.91;10483330;28;20503;-82
2022/09/22 07:26:36;;;;;;;0.85;0.80;;;;;;;11.77;75.04;101718.53;10483592;28;20088;-82
2022/09/22 07:31:39;;;;;;;;;;;;;;;12.00;73.80;101717.38;10472023;28;20045;-82
2022/09/22 07:36:41;;;;;;;1.95;1.13;;;;;;;11.92;74.01;101715.09;10472129;28;20286;-82
2022/09/22 07:41:43;;;;;;;2.58;1.13;;;;;;;11.87;74.30;101724.16;10489673;28;20048;-82
2022/09/22 07:46:45;;;;;;;1.88;1.10;;;;;;;11.88;73.98;101728.56;10490651;28;20569;-82
2022/09/22 07:51:48;;;;;;;2.85;1.20;;;;;;;11.93;73.80;101733.28;10491798;28;20451;-82
2022/09/22 07:56:54;;;;;;;1.35;1.00;;;;;;;11.90;73.51;101726.38;10483508;28;20048;-82
2022/09/22 08:01:58;;;;;;;2.13;0.80;;;;;;;11.85;73.10;101726.34;10453329;28;20045;-82
2022/09/22 08:07:01;;;;;;;2.75;1.00;;;;;;;11.88;73.15;101725.00;10464201;28;20049;-82
2022/09/22 08:12:03;;;;;;;1.60;1.10;;;;;;;11.80;73.13;101719.97;10488431;28;20048;-80
2022/09/22 08:17:05;;;;;;;0.90;0.70;;;;;;;11.65;73.07;101720.66;10488821;28;20048;-82
2022/09/22 08:22:09;;;;;;;3.13;0.98;;;;;;;11.46;73.80;101733.94;10489451;28;20040;-82
2022/09/22 08:27:11;;;;;;;1.52;1.00;;;;;;;11.39;73.58;101730.56;10473724;28;20049;-82
2022/09/22 08:32:17;;;;;;;1.83;0.88;;;;;;;11.41;73.32;101728.38;10468507;28;20040;-82
2022/09/22 08:37:19;;;;;;;1.05;0.90;;;;;;;11.51;73.66;101723.00;10489013;28;20041;-82
2022/09/22 08:42:22;;;;;;;2.10;0.80;;;;;;;11.55;72.87;101712.31;10475111;28;20517;-82
2022/09/22 08:52:58;;;;;;;0.73;0.70;;;;;;;12.07;71.82;101709.72;10453667;28;20423;-83
2022/09/22 08:58:27;;;;;;;1.40;0.90;;;;;;;12.58;70.01;101705.31;10470321;28;20625;-83
2022/09/22 09:03:53;;;;;;;1.27;0.80;;;;;;;12.35;69.14;101705.78;10455668;28;20049;-86
2022/09/22 09:14:47;;;;;;;0.55;0.55;;;;;;;11.77;69.05;101705.63;10479062;28;20513;-86
2022/09/22 09:19:52;;;;;;;1.45;0.75;;;;;;;11.67;69.89;101699.22;10487230;28;20533;-85
2022/09/22 09:25:41;;;;;;;0.70;0.70;;;;;;;11.57;70.85;101704.63;10486728;28;20045;-83
2022/09/22 09:30:49;;;;;;;1.10;0.90;;;;;;;11.50;70.51;101690.28;10476597;28;20049;-83
2022/09/22 09:35:52;;;;;;;1.30;0.90;;;;;;;11.56;70.52;101690.03;10526715;28;20044;-82
2022/09/22 09:40:59;;;;;;;1.13;0.68;;;;;;;11.59;70.26;101689.53;10503966;28;20044;-84
2022/09/22 09:46:16;;;;;;;0.75;0.70;;;;;;;11.62;70.66;101691.75;10486853;28;20048;-86
2022/09/22 09:51:19;;;;;;;1.63;1.00;;;;;;;11.55;70.40;101685.66;10488000;28;20064;-85
2022/09/22 09:56:24;;;;;;;0.80;0.80;;;;;;;11.53;70.78;101676.84;10473860;28;20535;-85
2022/09/22 10:01:27;;;;;;;2.28;1.25;;;;;;;11.48;70.62;101665.81;10520989;28;20048;-86
2022/09/22 10:06:30;;;;;;;0.80;0.73;;;;;;;11.44;70.57;101670.16;10515447;28;20040;-85
2022/09/22 10:11:33;;;;;;;0.90;0.80;;;;;;;11.44;70.60;101670.16;10486693;28;20044;-85
2022/09/22 10:16:49;;;;;;;1.67;1.15;;;;;;;11.64;70.47;101661.25;10500433;28;20036;-86
2022/09/22 10:21:51;;;;;;;1.75;1.10;;;;;;;11.72;70.09;101656.09;10494267;28;20396;-86
2022/09/22 10:26:54;;;;;;;1.27;1.02;;;;;;;11.66;70.08;101659.06;10481774;28;20029;-87
2022/09/22 10:32:08;;;;;;;0.35;0.35;;;;;;;11.69;69.08;101659.38;10475059;28;20081;-83
2022/09/22 10:37:14;;;;;;;0.13;0.13;;;;;;;11.68;69.09;101656.88;10482971;28;20068;-80
2022/09/22 10:42:26;;;;;;;0.82;0.70;;;;;;;11.66;69.14;101646.16;10476717;28;20033;-79
2022/09/22 10:47:39;;;;;;;2.35;1.10;;;;;;;11.67;69.13;101650.56;10480281;28;20408;-79
2022/09/22 10:52:54;;;;;;;1.98;0.60;;;;;;;11.47;70.40;101655.91;10464346;28;20049;-81
2022/09/22 10:58:10;;;;;;;0.98;0.70;;;;;;;11.29;71.00;101670.03;10480419;28;20037;-80
2022/09/22 11:03:26;;;;;;;3.75;0.75;;;;;;;11.16;71.58;101644.63;10484053;28;20057;-91
2022/09/22 11:14:12;;;;;;;0.90;0.77;;;;;;;11.00;71.30;101651.06;10487995;28;20049;-89
2022/09/22 11:19:54;;;;;;;0.95;0.80;;;;;;;10.93;71.65;101649.59;10491490;28;20041;-90
2022/09/22 11:25:05;;;;;;;0.60;0.60;;;;;;;10.93;71.86;101642.19;10491466;28;20041;-90
2022/09/22 11:30:20;;;;;;;1.60;1.00;;;;;;;10.90;71.32;101636.38;10490751;28;20045;-90
2022/09/22 11:35:47;;;;;;;3.72;1.13;;;;;;;10.91;71.73;101625.16;10490180;28;20040;-90
2022/09/22 11:40:59;;;;;;;0.50;0.50;;;;;;;10.98;70.82;101625.78;10489740;28;20043;-91
2022/09/22 11:46:22;;;;;;;2.80;1.10;;;;;;;10.98;71.38;101620.28;10492492;28;20045;-90
2022/09/22 11:51:33;;;;;;;2.13;0.95;;;;;;;11.04;71.47;101618.41;10491257;28;20049;-90
2022/09/22 11:56:51;;;;;;;4.80;1.67;;;;;;;11.01;72.20;101613.44;10489833;28;20037;-90
2022/09/22 12:01:54;;;;;;;1.30;0.98;;;;;;;11.07;72.64;101615.13;10456083;28;20049;-92
2022/09/22 12:06:57;;;;;;;2.03;0.77;;;;;;;11.24;72.98;101599.34;10448346;28;20041;-90
2022/09/22 12:12:01;;;;;;;3.83;0.90;;;;;;;11.39;72.62;101604.16;10470913;28;20044;-91
2022/09/22 12:17:06;;;;;;;2.25;0.70;;;;;;;11.42;72.14;101600.88;10488631;28;20414;-91
2022/09/22 12:22:34;;;;;;;2.05;1.27;;;;;;;11.46;73.18;101597.34;10489734;28;20045;-91
2022/09/22 12:27:36;;;;;;;;;;;;;;;11.51;72.01;101595.72;10501189;28;20518;-91
2022/09/22 12:32:40;;;;;;;0.43;0.35;;;;;;;11.43;72.29;101586.88;10487674;28;19928;-91
2022/09/22 12:37:42;;;;;;;1.17;0.90;;;;;;;11.51;72.29;101585.56;10483780;28;20432;-90
2022/09/22 12:42:58;;;;;;;2.55;0.38;;;;;;;11.54;71.79;101578.72;10450787;28;20048;-90
2022/09/22 12:48:21;;;;;;;1.30;0.75;;;;;;;11.54;72.33;101567.72;10476855;28;20049;-82
2022/09/22 12:53:34;;;;;;;1.58;0.95;;;;;;;11.62;71.58;101570.78;10482852;28;20049;-85
2022/09/22 12:58:40;;;;;;;0.70;0.70;;;;;;;11.68;70.59;101564.25;10466982;28;20041;-84
2022/09/22 13:03:51;;;;;;;1.40;0.90;;;;;;;11.64;70.52;101559.53;10486400;28;20427;-81
2022/09/22 13:08:57;;;;;;;1.48;0.75;;;;;;;11.58;70.28;101555.09;10487228;28;20522;-84
2022/09/22 13:13:59;;;;;;;1.40;1.20;;;;;;;11.67;70.60;101559.84;10483949;28;20124;-87
2022/09/22 13:19:02;;;;;;;2.25;0.98;;;;;;;11.65;70.93;101552.94;10487223;28;20049;-83
2022/09/22 13:24:06;;;;;;;1.60;0.90;;;;;;;11.49;70.74;101552.03;10463868;28;20055;-82
2022/09/22 13:29:12;;;;;;;1.30;0.90;;;;;;;11.46;70.53;101547.06;10486651;28;20057;-90
2022/09/22 13:34:20;;;;;;;1.42;1.08;;;;;;;11.54;68.74;101552.03;10477942;28;20503;-89
2022/09/22 13:39:24;;;;;;;1.08;0.95;;;;;;;11.47;68.14;101551.47;10481704;28;20075;-84
2022/09/22 13:44:29;;;;;;;0.20;0.20;;;;;;;11.42;69.42;101544.00;10482824;28;20041;-82
2022/09/22 13:49:56;;;;;;;1.05;0.80;;;;;;;11.44;69.36;101539.06;10481322;28;20049;-87
2022/09/22 13:55:22;;;;;;;1.77;1.00;;;;;;;11.49;69.58;101535.53;10481472;28;20048;-86
2022/09/22 14:00:56;;;;;;;1.05;0.95;;;;;;;11.42;69.66;101543.16;10487082;28;20056;-85
2022/09/22 14:06:03;;;;;;;0.75;0.50;;;;;;;11.38;70.10;101547.53;10486265;28;20044;-84
2022/09/22 14:11:23;;;;;;;4.38;1.67;;;;;;;11.31;71.42;101545.03;10481937;28;20049;-82
2022/09/22 14:16:47;;;;;;;1.90;0.93;;;;;;;11.23;72.32;101547.44;10480935;28;20049;-85
2022/09/22 14:21:57;;;;;;;2.22;1.50;;;;;;;11.13;72.43;101545.44;10478105;28;20387;-84
2022/09/22 14:27:03;;;;;;;1.73;1.52;;;;;;;10.96;71.91;101540.09;10481161;28;20086;-78
2022/09/22 14:32:35;;;;;;;0.60;0.25;;;;;;;10.89;73.43;101533.97;10479932;28;20045;-80
2022/09/22 14:37:41;;;;;;;3.15;0.93;;;;;;;10.89;73.32;101544.94;10482965;28;20419;-81
2022/09/22 14:42:57;;;;;;;3.42;1.40;;;;;;;10.85;73.72;101538.31;10500550;28;20040;-81
2022/09/22 14:48:11;;;;;;;1.23;0.70;;;;;;;10.77;74.85;101536.91;10475585;28;20045;-86
2022/09/22 14:53:30;;;;;;;3.22;1.33;;;;;;;10.68;75.05;101535.69;10495616;28;20045;-90
2022/09/22 14:58:37;;;;;;;1.17;0.90;;;;;;;10.65;74.91;101541.72;10487534;28;20511;-86
2022/09/22 15:03:43;;;;;;;0.50;0.50;;;;;;;10.53;74.96;101536.38;10497444;28;20061;-91
2022/09/22 15:08:48;;;;;;;3.42;1.35;;;;;;;10.46;75.54;101534.94;10472176;28;20060;-84
2022/09/22 15:13:51;;;;;;;2.08;0.88;;;;;;;10.47;75.36;101542.91;10498246;28;20032;-83
2022/09/22 15:18:54;;;;;;;4.90;1.23;;;;;;;10.39;76.01;101535.13;10494915;28;20033;-83
2022/09/22 15:23:57;;;;;;;3.00;1.50;;;;;;;10.33;75.27;101541.66;10492589;28;20411;-83
2022/09/22 15:29:00;;;;;;;1.08;0.80;;;;;;;10.26;75.21;101543.78;10487938;28;20036;-89
2022/09/22 15:34:02;;;;;;;3.20;1.30;;;;;;;10.23;75.65;101552.50;10495005;28;20051;-84
2022/09/22 15:39:12;;;;;;;1.85;1.10;;;;;;;10.16;75.88;101551.84;10501226;28;20041;-85
2022/09/22 15:44:15;;;;;;;2.55;0.55;;;;;;;10.13;76.26;101555.09;10485728;28;20049;-85
2022/09/22 15:49:21;;;;;;;2.63;1.60;;;;;;;10.04;76.00;101568.41;10488917;28;20033;-90
2022/09/22 15:54:25;;;;;;;3.40;1.33;;;;;;;9.95;75.89;101561.75;10503864;28;20059;-86
2022/09/22 15:59:31;;;;;;;3.92;2.28;;;;;;;9.89;77.01;101563.59;10454651;28;20041;-86
2022/09/22 16:04:33;;;;;;;0.80;0.63;;;;;;;9.84;77.14;101560.75;10484947;28;21032;-85
2022/09/22 16:09:35;;;;;;;1.33;0.90;;;;;;;9.84;77.17;101566.25;10484622;28;20041;-89
2022/09/22 16:14:41;;;;;;;3.30;1.00;;;;;;;9.83;77.51;101570.06;10485185;28;20041;-88
2022/09/22 16:19:43;;;;;;;1.80;1.20;;;;;;;9.78;78.13;101569.19;10468789;28;20052;-87
2022/09/22 16:24:53;;;;;;;0.90;0.80;;;;;;;9.81;78.41;101569.50;10478323;28;20045;-87
2022/09/22 16:30:16;;;;;;;1.35;1.02;;;;;;;9.76;78.18;101574.91;10483784;28;20048;-86
2022/09/22 16:35:29;;;;;;;2.80;1.00;;;;;;;9.68;77.81;101567.13;10469532;28;20585;-86
2022/09/22 16:40:34;;;;;;;2.95;0.68;;;;;;;9.61;78.59;101578.25;10468350;28;20060;-85
2022/09/22 16:50:58;;;;;;;2.55;1.80;;;;;;;9.43;79.00;101564.84;10474208;28;20056;-86
2022/09/22 16:56:01;;;;;;;1.80;0.98;;;;;;;9.45;79.24;101565.41;10486619;28;20056;-83
2022/09/22 17:01:04;;;;;;;4.20;1.35;;;;;;;9.49;78.98;101576.69;10479405;28;20060;-81
2022/09/22 17:06:08;;;;;;;0.98;0.68;;;;;;;9.47;78.84;101567.91;10479141;28;20057;-83
2022/09/22 17:11:13;;;;;;;2.17;1.30;;;;;;;9.47;78.42;101559.69;10485572;28;20419;-83
2022/09/22 17:16:19;;;;;;;0.88;0.80;;;;;;;9.45;77.88;101568.16;10499728;28;20033;-82
2022/09/22 17:21:22;;;;;;;1.73;0.88;;;;;;;9.42;77.92;101556.88;10481359;28;20044;-81
2022/09/22 17:26:36;;;;;;;2.88;1.50;;;;;;;9.39;77.93;101552.72;10478831;28;20041;-83
2022/09/22 17:31:40;;;;;;;1.98;1.50;;;;;;;9.26;78.22;101553.91;10474052;28;20037;-80
2022/09/22 17:36:42;;;;;;;4.13;2.00;;;;;;;9.22;78.57;101552.75;10462265;28;20049;-84
2022/09/22 17:41:45;;;;;;;2.85;1.52;;;;;;;9.23;78.39;101548.09;10478644;28;20034;-86
2022/09/22 17:57:31;;;;;;;2.97;1.50;;;;;;;9.24;78.39;101542.38;10479664;28;20029;-88
2022/09/22 18:02:37;;;;;;;4.18;2.03;;;;;;;9.29;78.38;101553.41;10480434;28;20053;-87
2022/09/22 18:07:40;;;;;;;5.47;2.30;;;;;;;9.34;78.95;101534.28;10480399;28;20037;-85
2022/09/22 18:12:43;;;;;;;2.67;1.70;;;;;;;9.34;78.48;101545.25;10468097;28;20053;-91
2022/09/22 18:17:45;;;;;;;4.85;3.25;;;;;;;9.27;77.65;101530.09;10479029;28;20049;-86
2022/09/22 18:22:48;;;;;;;5.13;1.83;;;;;;;9.31;77.49;101533.97;10469647;28;20044;-84
2022/09/22 18:27:52;;;;;;;5.40;1.90;;;;;;;9.30;76.92;101521.34;10477187;28;20049;-84
2022/09/22 18:32:55;;;;;;;5.22;1.98;;;;;;;9.27;77.68;101525.44;10479247;28;20068;-86
2022/09/22 18:37:57;;;;;;;5.50;2.17;;;;;;;9.30;76.88;101529.56;10479086;28;20033;-87
2022/09/22 18:42:59;;;;;;;4.63;2.00;;;;;;;9.26;77.76;101528.44;10477479;28;20052;-85
2022/09/22 18:48:04;;;;;;;3.08;1.88;;;;;;;9.25;77.03;101534.97;10477074;28;20045;-82
2022/09/22 18:53:06;;;;;;;4.45;1.70;;;;;;;9.09;77.42;101533.91;10477586;28;20537;-85
2022/09/22 18:58:08;;;;;;;5.03;2.45;;;;;;;9.00;77.81;101532.66;10470537;28;20038;-85
2022/09/22 19:03:11;;;;;;;4.05;2.60;;;;;;;8.98;77.98;101532.06;10470940;28;20056;-84
2022/09/22 19:08:13;;;;;;;5.38;2.08;;;;;;;8.87;77.84;101525.63;10482750;28;20041;-93
2022/09/22 19:13:16;;;;;;;4.60;2.50;;;;;;;8.79;77.56;101531.50;10462441;28;20033;-93
2022/09/22 19:18:20;;;;;;;4.47;2.40;;;;;;;8.81;78.75;101533.97;10474049;28;20053;-91
2022/09/22 19:23:23;;;;;;;6.72;3.42;;;;;;;8.74;78.20;101532.25;10476963;28;20049;-95
2022/09/22 19:28:25;;;;;;;4.20;2.22;;;;;;;8.80;78.98;101532.31;10490527;28;20468;-93
2022/09/22 19:33:30;;;;;;;6.13;2.50;;;;;;;8.83;79.54;101537.28;10491613;28;20087;-90
2022/09/22 19:38:32;;;;;;;3.80;2.15;;;;;;;8.83;78.63;101534.56;10486574;28;20049;-91
2022/09/22 19:43:35;;;;;;;8.30;2.05;;;;;;;8.92;78.86;101525.69;10477524;28;20052;-91
2022/09/22 19:48:37;;;;;;;2.80;2.05;;;;;;;8.92;79.00;101519.41;10487213;28;20033;-95
2022/09/22 19:53:39;;;;;;;4.07;2.10;;;;;;;8.90;79.34;101535.25;10489274;28;20052;-94
2022/09/22 19:58:43;;;;;;;4.18;2.17;;;;;;;8.80;78.79;101521.38;10482726;28;20148;-90
2022/09/22 20:03:45;;;;;;;6.78;2.50;;;;;;;8.86;78.62;101518.50;10486060;28;20068;-88
2022/09/22 20:08:47;;;;;;;3.55;2.13;;;;;;;8.71;79.48;101519.06;10489236;28;20033;-91
2022/09/22 20:19:10;;;;;;;3.35;2.35;;;;;;;8.60;78.62;101514.47;10488148;28;20049;-74
2022/09/22 20:24:18;;;;;;;11.27;5.40;;;;;;;8.54;79.25;101512.72;10484467;28;20522;-74
2022/09/22 20:29:20;;;;;;;;;;;;;;;8.53;79.78;101515.72;10485255;28;20037;-76
2022/09/22 20:34:23;;;;;;;4.13;2.20;;;;;;;8.62;79.32;101515.06;10465771;28;20019;-73
2022/09/22 20:39:25;;;;;;;3.13;1.92;;;;;;;8.74;79.52;101504.88;10482195;28;20053;-76
2022/09/22 20:44:27;;;;;;;4.13;2.03;;;;;;;8.75;78.94;101513.91;10484408;28;20414;-75
2022/09/22 20:49:30;;;;;;;3.40;2.17;;;;;;;8.67;78.98;101506.91;10487254;28;20451;-76
2022/09/22 20:54:32;;;;;;;5.68;2.70;;;;;;;8.79;78.80;101508.75;10488941;28;20041;-75
2022/09/22 20:59:35;;;;;;;29.50;11.65;;;;;;;8.79;79.71;101503.28;10486598;28;20052;-74
2022/09/22 21:04:37;;;;;;;2.58;1.67;;;;;;;8.85;78.85;101507.75;10509773;28;20064;-76
2022/09/22 21:15:00;;;;;;;2.28;1.40;;;;;;;8.85;78.39;101497.69;10481978;28;20503;-73
2022/09/22 21:20:03;;;;;;;3.95;2.00;;;;;;;8.79;79.43;101492.34;10479872;28;20147;-76
2022/09/22 21:25:05;;;;;;;2.60;1.80;;;;;;;8.80;78.58;101488.53;10485591;28;20080;-76
2022/09/22 21:30:08;;;;;;;2.45;1.90;;;;;;;8.85;79.00;101494.94;10480812;28;20041;-77
2022/09/22 21:35:15;;;;;;;5.85;2.03;;;;;;;8.88;78.70;101490.88;10475094;28;20060;-75
2022/09/22 21:40:17;;;;;;;1.90;1.60;;;;;;;9.09;78.44;101478.31;10480255;28;20056;-74
2022/09/22 21:45:20;;;;;;;3.78;2.00;;;;;;;9.11;78.76;101466.03;10485446;28;20838;-75
2022/09/22 21:50:22;;;;;;;3.08;1.80;;;;;;;9.20;77.86;101464.53;10484008;28;20037;-75
2022/09/22 21:55:26;;;;;;;2.88;1.70;;;;;;;9.05;78.33;101475.25;10484954;28;20529;-74
2022/09/22 22:00:30;;;;;;;1.38;1.10;;;;;;;8.96;78.08;101474.84;10483740;28;20047;-74
2022/09/22 22:05:32;;;;;;;2.40;1.23;;;;;;;9.01;78.05;101474.09;10485470;28;20061;-75
2022/09/22 22:10:38;;;;;;;1.08;1.02;;;;;;;8.96;77.89;101474.00;10499657;28;20047;-74
2022/09/22 22:15:40;;;;;;;3.55;1.40;;;;;;;8.98;78.20;101463.63;10476345;28;20045;-74
2022/09/22 22:20:42;;;;;;;0.75;0.43;;;;;;;8.94;78.05;101471.53;10481524;28;20048;-75
2022/09/22 22:25:44;;;;;;;1.05;0.95;;;;;;;8.88;77.36;101460.75;10485639;28;20080;-74
2022/09/22 22:30:46;;;;;;;1.17;1.00;;;;;;;8.85;77.64;101459.34;10480040;28;20056;-75
2022/09/22 22:35:50;;;;;;;1.80;0.90;;;;;;;8.89;78.00;101459.69;10484643;28;20044;-75
2022/09/22 22:41:02;;;;;;;1.60;1.50;;;;;;;8.85;77.48;101453.03;10472532;28;20045;-74
2022/09/22 22:46:05;;;;;;;1.83;1.17;;;;;;;8.87;77.61;101448.16;10468231;28;20044;-80
2022/09/22 22:51:11;;;;;;;2.65;1.92;;;;;;;8.83;77.94;101450.53;10493678;28;20053;-79
2022/09/22 22:56:15;;;;;;;3.55;1.50;;;;;;;8.75;78.20;101454.53;10487385;28;20049;-79
2022/09/22 23:01:20;;;;;;;4.13;1.50;;;;;;;8.77;77.95;101444.16;10488072;28;20030;-78
2022/09/22 23:06:35;;;;;;;2.47;1.70;;;;;;;8.76;78.94;101445.25;10488787;28;20036;-78
2022/09/22 23:11:38;;;;;;;3.92;2.00;;;;;;;8.72;78.47;101443.25;10487219;28;20104;-78
2022/09/22 23:16:43;;;;;;;5.68;2.17;;;;;;;8.62;79.25;101449.38;10469985;28;20033;-78
2022/09/22 23:21:45;;;;;;;3.75;2.05;;;;;;;8.50;78.78;101450.53;10487512;28;20040;-78
2022/09/22 23:26:48;;;;;;;4.43;2.35;;;;;;;8.43;79.05;101445.22;10487211;28;20424;-78
2022/09/22 23:31:50;;;;;;;2.47;1.52;;;;;;;8.42;80.45;101443.56;10488571;28;20048;-78
2022/09/22 23:36:52;;;;;;;4.07;2.33;;;;;;;8.42;79.97;101443.56;10486414;28;20490;-78
2022/09/22 23:41:55;;;;;;;2.28;1.42;;;;;;;8.63;80.22;101444.75;10488428;28;20534;-77
2022/09/22 23:46:58;;;;;;;4.78;1.67;;;;;;;8.65;80.10;101434.38;10490630;28;20052;-77
2022/09/22 23:52:00;;;;;;;3.20;1.55;;;;;;;8.57;80.35;101443.84;10487008;28;20045;-78
2022/09/22 23:57:03;;;;;;;3.33;1.83;;;;;;;8.57;79.62;101429.34;10487137;28;20029;-78
